sensor_id;sensor_type;location;lat;lon;timestamp;temperature;humidity
5009;DHT22;2523;51.058;6.922;2023-05-16T00:00:29;12.90;99.90
5009;DHT22;2523;51.058;6.922;2023-05-16T00:03:00;12.90;99.90
5009;DHT22;2523;51.058;6.922;2023-05-16T00:05:27;12.80;1.00
5009;DHT22;2523;51.058;6.922;2023-05-16T00:07:52;12.80;1.00
5009;DHT22;2523;51.058;6.922;2023-05-16T00:10:18;12.70;1.00
5009;DHT22;2523;51.058;6.922;2023-05-16T00:12:43;12.70;1.00
5009;DHT22;2523;51.058;6.922;2023-05-16T00:15:10;12.70;1.00
5009;DHT22;2523;51.058;6.922;2023-05-16T00:17:38;12.60;1.00
5009;DHT22;2523;51.058;6.922;2023-05-16T00:20:05;12.60;1.00
5009;DHT22;2523;51.058;6.922;2023-05-16T00:22:35;12.60;1.00
5009;DHT22;2523;51.058;6.922;2023-05-16T00:25:01;12.60;1.00
5009;DHT22;2523;51.058;6.922;2023-05-16T00:27:27;12.60;1.00
5009;DHT22;2523;51.058;6.922;2023-05-16T00:29:53;12.50;1.00
5009;DHT22;2523;51.058;6.922;2023-05-16T00:32:18;12.50;1.00
5009;DHT22;2523;51.058;6.922;2023-05-16T00:34:44;12.50;99.90
5009;DHT22;2523;51.058;6.922;2023-05-16T00:37:09;12.50;1.00
5009;DHT22;2523;51.058;6.922;2023-05-16T00:39:35;12.40;1.00
5009;DHT22;2523;51.058;6.922;2023-05-16T00:42:00;12.30;99.90
5009;DHT22;2523;51.058;6.922;2023-05-16T00:44:26;12.20;99.90
5009;DHT22;2523;51.058;6.922;2023-05-16T00:46:53;12.10;99.90
5009;DHT22;2523;51.058;6.922;2023-05-16T00:49:18;12.10;99.90
5009;DHT22;2523;51.058;6.922;2023-05-16T00:51:44;12.00;99.90
5009;DHT22;2523;51.058;6.922;2023-05-16T00:54:10;11.90;1.00
5009;DHT22;2523;51.058;6.922;2023-05-16T00:56:36;11.90;1.00
5009;DHT22;2523;51.058;6.922;2023-05-16T00:59:02;11.70;1.00
5009;DHT22;2523;51.058;6.922;2023-05-16T01:01:28;11.70;1.00
5009;DHT22;2523;51.058;6.922;2023-05-16T01:03:55;11.70;99.90
5009;DHT22;2523;51.058;6.922;2023-05-16T01:06:21;11.60;1.00
5009;DHT22;2523;51.058;6.922;2023-05-16T01:08:46;11.70;1.00
5009;DHT22;2523;51.058;6.922;2023-05-16T01:11:27;11.80;99.90
5009;DHT22;2523;51.058;6.922;2023-05-16T01:17:06;11.80;99.90
5009;DHT22;2523;51.058;6.922;2023-05-16T01:19:46;11.70;99.90
5009;DHT22;2523;51.058;6.922;2023-05-16T01:25:29;11.60;99.90
5009;DHT22;2523;51.058;6.922;2023-05-16T01:27:56;11.60;99.90
5009;DHT22;2523;51.058;6.922;2023-05-16T01:30:22;11.50;99.90
5009;DHT22;2523;51.058;6.922;2023-05-16T01:32:48;11.40;99.90
5009;DHT22;2523;51.058;6.922;2023-05-16T01:35:15;11.40;99.90
5009;DHT22;2523;51.058;6.922;2023-05-16T01:37:46;11.30;99.90
5009;DHT22;2523;51.058;6.922;2023-05-16T01:40:26;11.30;99.90
5009;DHT22;2523;51.058;6.922;2023-05-16T01:42:55;11.30;99.90
5009;DHT22;2523;51.058;6.922;2023-05-16T01:45:25;11.30;99.90
5009;DHT22;2523;51.058;6.922;2023-05-16T01:48:15;11.30;99.90
5009;DHT22;2523;51.058;6.922;2023-05-16T01:50:45;11.10;99.90
5009;DHT22;2523;51.058;6.922;2023-05-16T01:53:15;11.10;99.90
5009;DHT22;2523;51.058;6.922;2023-05-16T01:55:46;11.10;99.90
5009;DHT22;2523;51.058;6.922;2023-05-16T01:58:14;11.10;99.90
5009;DHT22;2523;51.058;6.922;2023-05-16T02:00:40;11.00;99.90
5009;DHT22;2523;51.058;6.922;2023-05-16T02:03:06;11.00;99.90
5009;DHT22;2523;51.058;6.922;2023-05-16T02:05:32;11.00;99.90
5009;DHT22;2523;51.058;6.922;2023-05-16T02:08:01;11.00;99.90
5009;DHT22;2523;51.058;6.922;2023-05-16T02:10:26;11.00;99.90
5009;DHT22;2523;51.058;6.922;2023-05-16T02:12:52;10.90;99.90
5009;DHT22;2523;51.058;6.922;2023-05-16T02:15:18;10.90;99.90
5009;DHT22;2523;51.058;6.922;2023-05-16T02:17:43;10.70;99.90
5009;DHT22;2523;51.058;6.922;2023-05-16T02:20:09;10.70;99.90
5009;DHT22;2523;51.058;6.922;2023-05-16T02:22:39;10.60;99.90
5009;DHT22;2523;51.058;6.922;2023-05-16T02:25:05;10.50;99.90
5009;DHT22;2523;51.058;6.922;2023-05-16T02:27:31;10.50;99.90
5009;DHT22;2523;51.058;6.922;2023-05-16T02:29:57;10.60;99.90
5009;DHT22;2523;51.058;6.922;2023-05-16T02:32:22;10.50;99.90
5009;DHT22;2523;51.058;6.922;2023-05-16T02:34:48;10.50;99.90
5009;DHT22;2523;51.058;6.922;2023-05-16T02:37:14;10.50;99.90
5009;DHT22;2523;51.058;6.922;2023-05-16T02:39:39;10.50;99.90
5009;DHT22;2523;51.058;6.922;2023-05-16T02:42:06;10.40;99.90
5009;DHT22;2523;51.058;6.922;2023-05-16T02:44:32;10.40;99.90
5009;DHT22;2523;51.058;6.922;2023-05-16T02:46:58;10.40;99.90
5009;DHT22;2523;51.058;6.922;2023-05-16T02:49:23;10.40;99.90
5009;DHT22;2523;51.058;6.922;2023-05-16T02:51:49;10.40;99.90
5009;DHT22;2523;51.058;6.922;2023-05-16T02:54:15;10.40;99.90
5009;DHT22;2523;51.058;6.922;2023-05-16T02:56:40;10.40;99.90
5009;DHT22;2523;51.058;6.922;2023-05-16T02:59:06;10.40;99.90
5009;DHT22;2523;51.058;6.922;2023-05-16T03:01:32;10.30;11.30
5009;DHT22;2523;51.058;6.922;2023-05-16T03:03:57;10.30;99.90
5009;DHT22;2523;51.058;6.922;2023-05-16T03:06:23;10.30;99.90
5009;DHT22;2523;51.058;6.922;2023-05-16T03:08:49;10.30;99.90
5009;DHT22;2523;51.058;6.922;2023-05-16T03:11:16;10.30;99.90
5009;DHT22;2523;51.058;6.922;2023-05-16T03:13:44;10.20;99.90
5009;DHT22;2523;51.058;6.922;2023-05-16T03:16:10;10.30;99.90
5009;DHT22;2523;51.058;6.922;2023-05-16T03:18:36;10.20;1.00
5009;DHT22;2523;51.058;6.922;2023-05-16T03:21:01;10.20;1.00
5009;DHT22;2523;51.058;6.922;2023-05-16T03:23:27;10.20;48.70
5009;DHT22;2523;51.058;6.922;2023-05-16T03:25:53;10.20;1.00
5009;DHT22;2523;51.058;6.922;2023-05-16T03:28:18;10.30;1.00
5009;DHT22;2523;51.058;6.922;2023-05-16T03:30:44;10.30;1.00
5009;DHT22;2523;51.058;6.922;2023-05-16T03:33:10;10.30;1.00
5009;DHT22;2523;51.058;6.922;2023-05-16T03:35:35;10.20;1.00
5009;DHT22;2523;51.058;6.922;2023-05-16T03:38:01;10.20;1.00
5009;DHT22;2523;51.058;6.922;2023-05-16T03:40:27;10.20;99.90
5009;DHT22;2523;51.058;6.922;2023-05-16T03:42:52;10.10;1.00
5009;DHT22;2523;51.058;6.922;2023-05-16T03:45:18;10.20;1.00
5009;DHT22;2523;51.058;6.922;2023-05-16T03:47:43;10.20;1.00
5009;DHT22;2523;51.058;6.922;2023-05-16T03:50:09;10.20;99.90
5009;DHT22;2523;51.058;6.922;2023-05-16T03:52:35;10.20;1.00
5009;DHT22;2523;51.058;6.922;2023-05-16T03:55:01;10.20;51.90
5009;DHT22;2523;51.058;6.922;2023-05-16T03:57:30;10.10;1.00
5009;DHT22;2523;51.058;6.922;2023-05-16T03:59:55;10.20;99.90
5009;DHT22;2523;51.058;6.922;2023-05-16T04:02:21;10.20;99.90
5009;DHT22;2523;51.058;6.922;2023-05-16T04:04:47;10.20;1.00
5009;DHT22;2523;51.058;6.922;2023-05-16T04:07:12;10.20;37.80
5009;DHT22;2523;51.058;6.922;2023-05-16T04:09:38;10.30;99.90
5009;DHT22;2523;51.058;6.922;2023-05-16T04:12:04;10.20;1.00
5009;DHT22;2523;51.058;6.922;2023-05-16T04:14:30;10.10;1.00
5009;DHT22;2523;51.058;6.922;2023-05-16T04:16:56;10.20;1.00
5009;DHT22;2523;51.058;6.922;2023-05-16T04:19:21;10.20;1.00
5009;DHT22;2523;51.058;6.922;2023-05-16T04:21:47;10.20;1.00
5009;DHT22;2523;51.058;6.922;2023-05-16T04:24:13;10.20;99.90
5009;DHT22;2523;51.058;6.922;2023-05-16T04:26:38;10.20;1.00
5009;DHT22;2523;51.058;6.922;2023-05-16T04:29:04;10.10;99.90
5009;DHT22;2523;51.058;6.922;2023-05-16T04:31:30;10.00;1.00
5009;DHT22;2523;51.058;6.922;2023-05-16T04:33:55;10.00;1.00
5009;DHT22;2523;51.058;6.922;2023-05-16T04:36:22;9.90;1.00
5009;DHT22;2523;51.058;6.922;2023-05-16T04:38:48;9.90;1.00
5009;DHT22;2523;51.058;6.922;2023-05-16T04:41:13;9.80;16.30
5009;DHT22;2523;51.058;6.922;2023-05-16T04:43:39;9.80;1.00
5009;DHT22;2523;51.058;6.922;2023-05-16T04:46:05;9.70;99.90
5009;DHT22;2523;51.058;6.922;2023-05-16T04:48:34;9.70;1.00
5009;DHT22;2523;51.058;6.922;2023-05-16T04:51:00;9.70;99.90
5009;DHT22;2523;51.058;6.922;2023-05-16T04:53:25;9.60;99.90
5009;DHT22;2523;51.058;6.922;2023-05-16T04:55:51;9.60;99.90
5009;DHT22;2523;51.058;6.922;2023-05-16T04:58:17;9.60;99.90
5009;DHT22;2523;51.058;6.922;2023-05-16T05:00:42;9.60;99.90
5009;DHT22;2523;51.058;6.922;2023-05-16T05:03:08;9.70;99.90
5009;DHT22;2523;51.058;6.922;2023-05-16T05:05:33;9.80;99.90
5009;DHT22;2523;51.058;6.922;2023-05-16T05:07:59;9.80;1.00
5009;DHT22;2523;51.058;6.922;2023-05-16T05:10:25;9.90;1.00
5009;DHT22;2523;51.058;6.922;2023-05-16T05:12:52;9.90;99.90
5009;DHT22;2523;51.058;6.922;2023-05-16T05:15:18;9.90;99.90
5009;DHT22;2523;51.058;6.922;2023-05-16T05:17:44;10.00;99.90
5009;DHT22;2523;51.058;6.922;2023-05-16T05:20:10;10.00;1.00
5009;DHT22;2523;51.058;6.922;2023-05-16T05:22:36;9.90;1.00
5009;DHT22;2523;51.058;6.922;2023-05-16T05:25:02;9.90;1.00
5009;DHT22;2523;51.058;6.922;2023-05-16T05:27:27;10.10;1.00
5009;DHT22;2523;51.058;6.922;2023-05-16T05:29:53;10.00;1.00
5009;DHT22;2523;51.058;6.922;2023-05-16T05:32:19;9.90;1.00
5009;DHT22;2523;51.058;6.922;2023-05-16T05:34:44;9.90;1.00
5009;DHT22;2523;51.058;6.922;2023-05-16T05:37:10;10.00;1.00
5009;DHT22;2523;51.058;6.922;2023-05-16T05:39:35;10.00;99.90
5009;DHT22;2523;51.058;6.922;2023-05-16T05:42:01;10.00;30.10
5009;DHT22;2523;51.058;6.922;2023-05-16T05:44:28;10.10;1.00
5009;DHT22;2523;51.058;6.922;2023-05-16T05:46:54;10.10;1.00
5009;DHT22;2523;51.058;6.922;2023-05-16T05:49:22;10.00;1.00
5009;DHT22;2523;51.058;6.922;2023-05-16T05:51:48;10.00;1.00
5009;DHT22;2523;51.058;6.922;2023-05-16T05:54:19;10.00;1.00
5009;DHT22;2523;51.058;6.922;2023-05-16T05:56:45;10.00;1.00
5009;DHT22;2523;51.058;6.922;2023-05-16T05:59:10;10.10;1.00
5009;DHT22;2523;51.058;6.922;2023-05-16T06:01:36;10.20;1.00
5009;DHT22;2523;51.058;6.922;2023-05-16T06:04:02;10.10;1.00
5009;DHT22;2523;51.058;6.922;2023-05-16T06:06:27;10.20;1.00
5009;DHT22;2523;51.058;6.922;2023-05-16T06:08:53;10.30;1.00
5009;DHT22;2523;51.058;6.922;2023-05-16T06:11:19;10.40;99.90
5009;DHT22;2523;51.058;6.922;2023-05-16T06:13:46;10.30;99.90
5009;DHT22;2523;51.058;6.922;2023-05-16T06:16:11;10.50;99.90
5009;DHT22;2523;51.058;6.922;2023-05-16T06:18:37;10.50;99.90
5009;DHT22;2523;51.058;6.922;2023-05-16T06:21:03;10.60;40.90
5009;DHT22;2523;51.058;6.922;2023-05-16T06:23:29;10.60;1.00
5009;DHT22;2523;51.058;6.922;2023-05-16T06:25:55;10.60;1.00
5009;DHT22;2523;51.058;6.922;2023-05-16T06:28:20;10.50;1.00
5009;DHT22;2523;51.058;6.922;2023-05-16T06:30:46;10.50;1.00
5009;DHT22;2523;51.058;6.922;2023-05-16T06:33:13;10.50;1.00
5009;DHT22;2523;51.058;6.922;2023-05-16T06:35:39;10.50;1.00
5009;DHT22;2523;51.058;6.922;2023-05-16T06:38:05;10.60;1.00
5009;DHT22;2523;51.058;6.922;2023-05-16T06:40:30;10.50;1.00
5009;DHT22;2523;51.058;6.922;2023-05-16T06:42:56;10.60;1.00
5009;DHT22;2523;51.058;6.922;2023-05-16T06:45:25;10.60;1.00
5009;DHT22;2523;51.058;6.922;2023-05-16T06:47:51;10.70;1.00
5009;DHT22;2523;51.058;6.922;2023-05-16T06:50:16;10.70;1.00
5009;DHT22;2523;51.058;6.922;2023-05-16T06:52:42;10.80;1.00
5009;DHT22;2523;51.058;6.922;2023-05-16T06:55:08;10.90;1.00
5009;DHT22;2523;51.058;6.922;2023-05-16T06:57:33;10.90;1.00
5009;DHT22;2523;51.058;6.922;2023-05-16T06:59:59;10.80;1.00
5009;DHT22;2523;51.058;6.922;2023-05-16T07:02:24;10.80;1.00
5009;DHT22;2523;51.058;6.922;2023-05-16T07:04:50;10.70;1.00
5009;DHT22;2523;51.058;6.922;2023-05-16T07:07:15;10.70;1.00
5009;DHT22;2523;51.058;6.922;2023-05-16T07:09:41;10.70;1.00
5009;DHT22;2523;51.058;6.922;2023-05-16T07:12:08;10.70;1.00
5009;DHT22;2523;51.058;6.922;2023-05-16T07:14:33;10.70;1.00
5009;DHT22;2523;51.058;6.922;2023-05-16T07:16:59;10.70;1.00
5009;DHT22;2523;51.058;6.922;2023-05-16T07:19:25;10.70;1.00
5009;DHT22;2523;51.058;6.922;2023-05-16T07:21:50;10.90;1.00
5009;DHT22;2523;51.058;6.922;2023-05-16T07:24:16;10.90;1.00
5009;DHT22;2523;51.058;6.922;2023-05-16T07:26:41;10.90;1.00
5009;DHT22;2523;51.058;6.922;2023-05-16T07:29:07;10.90;1.00
5009;DHT22;2523;51.058;6.922;2023-05-16T07:31:32;11.00;1.00
5009;DHT22;2523;51.058;6.922;2023-05-16T07:33:58;11.00;1.00
5009;DHT22;2523;51.058;6.922;2023-05-16T07:36:23;10.90;99.90
5009;DHT22;2523;51.058;6.922;2023-05-16T07:38:49;10.90;99.90
5009;DHT22;2523;51.058;6.922;2023-05-16T07:41:14;11.00;99.90
5009;DHT22;2523;51.058;6.922;2023-05-16T07:43:40;11.10;99.90
5009;DHT22;2523;51.058;6.922;2023-05-16T07:46:06;11.30;99.90
5009;DHT22;2523;51.058;6.922;2023-05-16T07:48:31;11.50;99.90
5009;DHT22;2523;51.058;6.922;2023-05-16T07:50:57;11.70;99.90
5009;DHT22;2523;51.058;6.922;2023-05-16T07:53:22;11.90;99.90
5009;DHT22;2523;51.058;6.922;2023-05-16T07:55:48;12.00;99.90
5009;DHT22;2523;51.058;6.922;2023-05-16T07:58:14;12.20;99.90
5009;DHT22;2523;51.058;6.922;2023-05-16T08:00:40;12.40;99.90
5009;DHT22;2523;51.058;6.922;2023-05-16T08:03:05;12.60;99.90
5009;DHT22;2523;51.058;6.922;2023-05-16T08:05:31;12.60;99.90
5009;DHT22;2523;51.058;6.922;2023-05-16T08:07:57;12.80;99.90
5009;DHT22;2523;51.058;6.922;2023-05-16T08:10:23;12.80;99.90
5009;DHT22;2523;51.058;6.922;2023-05-16T08:12:48;12.80;99.90
5009;DHT22;2523;51.058;6.922;2023-05-16T08:15:14;12.60;99.90
5009;DHT22;2523;51.058;6.922;2023-05-16T08:17:40;12.30;99.90
5009;DHT22;2523;51.058;6.922;2023-05-16T08:20:06;12.10;99.90
5009;DHT22;2523;51.058;6.922;2023-05-16T08:22:32;12.00;99.90
5009;DHT22;2523;51.058;6.922;2023-05-16T08:24:58;11.90;99.90
5009;DHT22;2523;51.058;6.922;2023-05-16T08:27:26;11.90;99.90
5009;DHT22;2523;51.058;6.922;2023-05-16T08:29:52;11.90;99.90
5009;DHT22;2523;51.058;6.922;2023-05-16T08:32:17;11.80;99.90
5009;DHT22;2523;51.058;6.922;2023-05-16T08:34:43;11.90;99.90
5009;DHT22;2523;51.058;6.922;2023-05-16T08:37:08;11.90;99.90
5009;DHT22;2523;51.058;6.922;2023-05-16T08:39:35;12.10;99.90
5009;DHT22;2523;51.058;6.922;2023-05-16T08:42:00;12.20;99.90
5009;DHT22;2523;51.058;6.922;2023-05-16T08:44:27;12.50;99.90
5009;DHT22;2523;51.058;6.922;2023-05-16T08:46:53;12.70;99.90
5009;DHT22;2523;51.058;6.922;2023-05-16T08:49:20;12.90;99.90
5009;DHT22;2523;51.058;6.922;2023-05-16T08:51:47;13.20;99.90
5009;DHT22;2523;51.058;6.922;2023-05-16T08:54:14;13.60;99.90
5009;DHT22;2523;51.058;6.922;2023-05-16T08:56:41;13.80;99.90
5009;DHT22;2523;51.058;6.922;2023-05-16T08:59:06;13.70;99.90
5009;DHT22;2523;51.058;6.922;2023-05-16T09:01:33;13.80;99.90
5009;DHT22;2523;51.058;6.922;2023-05-16T09:03:59;13.60;99.90
5009;DHT22;2523;51.058;6.922;2023-05-16T09:06:26;13.90;99.90
5009;DHT22;2523;51.058;6.922;2023-05-16T09:08:54;14.00;97.80
5009;DHT22;2523;51.058;6.922;2023-05-16T09:11:20;14.20;98.00
5009;DHT22;2523;51.058;6.922;2023-05-16T09:13:46;14.30;99.90
5009;DHT22;2523;51.058;6.922;2023-05-16T09:16:18;14.30;80.40
5009;DHT22;2523;51.058;6.922;2023-05-16T09:18:55;14.10;85.70
5009;DHT22;2523;51.058;6.922;2023-05-16T09:21:26;14.40;94.00
5009;DHT22;2523;51.058;6.922;2023-05-16T09:23:51;14.70;90.00
5009;DHT22;2523;51.058;6.922;2023-05-16T09:26:17;14.70;68.40
5009;DHT22;2523;51.058;6.922;2023-05-16T09:28:43;14.90;68.00
5009;DHT22;2523;51.058;6.922;2023-05-16T09:31:23;15.10;58.50
5009;DHT22;2523;51.058;6.922;2023-05-16T09:34:00;15.10;54.70
5009;DHT22;2523;51.058;6.922;2023-05-16T09:36:25;15.20;49.30
5009;DHT22;2523;51.058;6.922;2023-05-16T09:38:52;15.00;52.20
5009;DHT22;2523;51.058;6.922;2023-05-16T09:41:17;14.80;66.70
5009;DHT22;2523;51.058;6.922;2023-05-16T09:43:44;14.70;78.70
5009;DHT22;2523;51.058;6.922;2023-05-16T09:46:13;14.60;61.80
5009;DHT22;2523;51.058;6.922;2023-05-16T09:48:46;14.60;64.10
5009;DHT22;2523;51.058;6.922;2023-05-16T09:51:13;14.40;47.90
5009;DHT22;2523;51.058;6.922;2023-05-16T09:53:39;14.20;50.80
5009;DHT22;2523;51.058;6.922;2023-05-16T09:56:10;14.20;59.00
5009;DHT22;2523;51.058;6.922;2023-05-16T09:58:39;14.10;83.10
5009;DHT22;2523;51.058;6.922;2023-05-16T10:01:05;14.40;85.80
5009;DHT22;2523;51.058;6.922;2023-05-16T10:03:34;14.40;53.00
5009;DHT22;2523;51.058;6.922;2023-05-16T10:06:01;14.30;49.00
5009;DHT22;2523;51.058;6.922;2023-05-16T10:08:27;14.40;49.50
5009;DHT22;2523;51.058;6.922;2023-05-16T10:10:55;14.70;61.40
5009;DHT22;2523;51.058;6.922;2023-05-16T10:13:23;15.00;52.00
5009;DHT22;2523;51.058;6.922;2023-05-16T10:15:54;15.20;49.80
5009;DHT22;2523;51.058;6.922;2023-05-16T10:18:21;15.00;38.50
5009;DHT22;2523;51.058;6.922;2023-05-16T10:20:50;15.10;38.10
5009;DHT22;2523;51.058;6.922;2023-05-16T10:23:19;15.20;40.40
5009;DHT22;2523;51.058;6.922;2023-05-16T10:25:46;15.50;38.00
5009;DHT22;2523;51.058;6.922;2023-05-16T10:28:13;15.60;36.90
5009;DHT22;2523;51.058;6.922;2023-05-16T10:30:41;16.10;43.70
5009;DHT22;2523;51.058;6.922;2023-05-16T10:33:12;16.60;46.30
5009;DHT22;2523;51.058;6.922;2023-05-16T10:35:39;16.90;48.50
5009;DHT22;2523;51.058;6.922;2023-05-16T10:38:14;17.00;47.60
5009;DHT22;2523;51.058;6.922;2023-05-16T10:40:41;16.90;45.40
5009;DHT22;2523;51.058;6.922;2023-05-16T10:43:08;16.70;42.40
5009;DHT22;2523;51.058;6.922;2023-05-16T10:45:34;16.30;36.60
5009;DHT22;2523;51.058;6.922;2023-05-16T10:48:04;15.80;29.10
5009;DHT22;2523;51.058;6.922;2023-05-16T10:50:44;15.50;25.30
5009;DHT22;2523;51.058;6.922;2023-05-16T10:53:28;15.50;25.80
5009;DHT22;2523;51.058;6.922;2023-05-16T11:14:37;15.70;39.80
5009;DHT22;2523;51.058;6.922;2023-05-16T11:17:22;16.00;38.50
5009;DHT22;2523;51.058;6.922;2023-05-16T11:19:49;16.10;37.30
5009;DHT22;2523;51.058;6.922;2023-05-16T11:25:07;15.90;33.20
5009;DHT22;2523;51.058;6.922;2023-05-16T11:27:33;15.90;35.10
5009;DHT22;2523;51.058;6.922;2023-05-16T11:30:10;15.70;35.20
5009;DHT22;2523;51.058;6.922;2023-05-16T11:32:40;15.50;31.30
5009;DHT22;2523;51.058;6.922;2023-05-16T11:35:08;15.30;29.40
5009;DHT22;2523;51.058;6.922;2023-05-16T11:37:34;15.30;32.40
5009;DHT22;2523;51.058;6.922;2023-05-16T11:40:07;15.10;43.20
5009;DHT22;2523;51.058;6.922;2023-05-16T11:42:35;15.00;57.90
5009;DHT22;2523;51.058;6.922;2023-05-16T11:47:36;15.00;73.60
5009;DHT22;2523;51.058;6.922;2023-05-16T11:50:07;14.90;74.30
5009;DHT22;2523;51.058;6.922;2023-05-16T11:52:35;15.00;75.80
5009;DHT22;2523;51.058;6.922;2023-05-16T11:55:03;15.40;72.10
5009;DHT22;2523;51.058;6.922;2023-05-16T11:57:29;16.00;68.00
5009;DHT22;2523;51.058;6.922;2023-05-16T12:00:19;16.50;62.90
5009;DHT22;2523;51.058;6.922;2023-05-16T12:02:47;17.20;78.10
5009;DHT22;2523;51.058;6.922;2023-05-16T12:05:13;17.40;64.00
5009;DHT22;2523;51.058;6.922;2023-05-16T12:07:40;17.80;64.90
5009;DHT22;2523;51.058;6.922;2023-05-16T12:10:08;17.70;61.00
5009;DHT22;2523;51.058;6.922;2023-05-16T12:12:41;17.80;60.20
5009;DHT22;2523;51.058;6.922;2023-05-16T12:15:08;17.70;58.10
5009;DHT22;2523;51.058;6.922;2023-05-16T12:17:35;18.10;64.00
5009;DHT22;2523;51.058;6.922;2023-05-16T12:20:01;18.10;59.70
5009;DHT22;2523;51.058;6.922;2023-05-16T12:22:29;18.20;58.40
5009;DHT22;2523;51.058;6.922;2023-05-16T12:24:57;17.90;54.10
5009;DHT22;2523;51.058;6.922;2023-05-16T12:27:26;17.70;51.60
5009;DHT22;2523;51.058;6.922;2023-05-16T12:29:52;17.60;49.30
5009;DHT22;2523;51.058;6.922;2023-05-16T12:32:21;17.60;47.40
5009;DHT22;2523;51.058;6.922;2023-05-16T12:34:50;17.00;38.80
5009;DHT22;2523;51.058;6.922;2023-05-16T12:37:16;16.60;32.90
5009;DHT22;2523;51.058;6.922;2023-05-16T12:39:42;16.40;30.00
5009;DHT22;2523;51.058;6.922;2023-05-16T12:42:08;16.20;27.50
5009;DHT22;2523;51.058;6.922;2023-05-16T12:44:35;16.20;29.60
5009;DHT22;2523;51.058;6.922;2023-05-16T12:47:01;16.10;72.20
5009;DHT22;2523;51.058;6.922;2023-05-16T12:49:27;16.10;99.90
5009;DHT22;2523;51.058;6.922;2023-05-16T12:51:54;16.10;93.20
5009;DHT22;2523;51.058;6.922;2023-05-16T12:54:21;16.20;99.90
5009;DHT22;2523;51.058;6.922;2023-05-16T12:56:47;16.60;99.90
5009;DHT22;2523;51.058;6.922;2023-05-16T12:59:13;16.70;99.90
5009;DHT22;2523;51.058;6.922;2023-05-16T13:01:39;16.90;89.60
5009;DHT22;2523;51.058;6.922;2023-05-16T13:04:05;17.10;89.60
5009;DHT22;2523;51.058;6.922;2023-05-16T13:06:31;17.10;65.50
5009;DHT22;2523;51.058;6.922;2023-05-16T13:08:57;17.00;54.40
5009;DHT22;2523;51.058;6.922;2023-05-16T13:11:23;17.40;56.50
5009;DHT22;2523;51.058;6.922;2023-05-16T13:13:49;18.00;63.20
5009;DHT22;2523;51.058;6.922;2023-05-16T13:16:15;18.10;61.40
5009;DHT22;2523;51.058;6.922;2023-05-16T13:18:40;17.90;56.90
5009;DHT22;2523;51.058;6.922;2023-05-16T13:21:06;18.10;56.80
5009;DHT22;2523;51.058;6.922;2023-05-16T13:23:31;18.00;55.30
5009;DHT22;2523;51.058;6.922;2023-05-16T13:25:57;18.20;55.70
5009;DHT22;2523;51.058;6.922;2023-05-16T13:28:23;18.10;54.10
5009;DHT22;2523;51.058;6.922;2023-05-16T13:30:49;18.20;72.80
5009;DHT22;2523;51.058;6.922;2023-05-16T13:33:15;18.30;54.00
5009;DHT22;2523;51.058;6.922;2023-05-16T13:35:42;18.40;54.60
5009;DHT22;2523;51.058;6.922;2023-05-16T13:38:08;18.70;56.70
5009;DHT22;2523;51.058;6.922;2023-05-16T13:40:33;18.90;58.10
5009;DHT22;2523;51.058;6.922;2023-05-16T13:42:59;18.80;57.50
5009;DHT22;2523;51.058;6.922;2023-05-16T13:45:26;18.60;54.20
5009;DHT22;2523;51.058;6.922;2023-05-16T13:47:51;18.80;55.50
5009;DHT22;2523;51.058;6.922;2023-05-16T13:50:17;18.90;55.80
5009;DHT22;2523;51.058;6.922;2023-05-16T13:52:42;18.50;50.10
5009;DHT22;2523;51.058;6.922;2023-05-16T13:55:08;18.40;46.30
5009;DHT22;2523;51.058;6.922;2023-05-16T13:57:34;18.30;44.70
5009;DHT22;2523;51.058;6.922;2023-05-16T14:00:01;18.00;41.40
5009;DHT22;2523;51.058;6.922;2023-05-16T14:02:32;17.80;37.00
5009;DHT22;2523;51.058;6.922;2023-05-16T14:04:58;18.10;40.10
5009;DHT22;2523;51.058;6.922;2023-05-16T14:07:23;18.00;37.80
5009;DHT22;2523;51.058;6.922;2023-05-16T14:09:49;17.90;37.80
5009;DHT22;2523;51.058;6.922;2023-05-16T14:12:14;18.20;39.50
5009;DHT22;2523;51.058;6.922;2023-05-16T14:14:40;18.40;42.40
5009;DHT22;2523;51.058;6.922;2023-05-16T14:17:06;18.60;45.40
5009;DHT22;2523;51.058;6.922;2023-05-16T14:19:31;18.30;42.60
5009;DHT22;2523;51.058;6.922;2023-05-16T14:21:58;18.00;37.30
5009;DHT22;2523;51.058;6.922;2023-05-16T14:24:23;17.80;34.20
5009;DHT22;2523;51.058;6.922;2023-05-16T14:26:49;17.70;33.80
5009;DHT22;2523;51.058;6.922;2023-05-16T14:29:19;17.80;34.10
5009;DHT22;2523;51.058;6.922;2023-05-16T14:31:44;17.80;34.40
5009;DHT22;2523;51.058;6.922;2023-05-16T14:34:11;17.80;33.50
5009;DHT22;2523;51.058;6.922;2023-05-16T14:36:37;17.70;33.10
5009;DHT22;2523;51.058;6.922;2023-05-16T14:39:02;17.50;30.50
5009;DHT22;2523;51.058;6.922;2023-05-16T14:41:28;17.20;27.40
5009;DHT22;2523;51.058;6.922;2023-05-16T14:43:54;16.80;23.30
5009;DHT22;2523;51.058;6.922;2023-05-16T14:46:20;16.60;21.40
5009;DHT22;2523;51.058;6.922;2023-05-16T14:48:45;16.50;21.30
5009;DHT22;2523;51.058;6.922;2023-05-16T14:51:11;16.50;20.40
5009;DHT22;2523;51.058;6.922;2023-05-16T14:53:37;16.40;19.90
5009;DHT22;2523;51.058;6.922;2023-05-16T14:56:02;16.30;19.10
5009;DHT22;2523;51.058;6.922;2023-05-16T14:58:29;16.20;18.30
5009;DHT22;2523;51.058;6.922;2023-05-16T15:00:54;16.40;20.30
5009;DHT22;2523;51.058;6.922;2023-05-16T15:03:21;16.60;20.80
5009;DHT22;2523;51.058;6.922;2023-05-16T15:05:46;16.70;22.50
5009;DHT22;2523;51.058;6.922;2023-05-16T15:08:12;16.60;22.20
5009;DHT22;2523;51.058;6.922;2023-05-16T15:10:37;16.50;21.10
5009;DHT22;2523;51.058;6.922;2023-05-16T15:13:03;16.50;20.50
5009;DHT22;2523;51.058;6.922;2023-05-16T15:15:28;16.40;20.60
5009;DHT22;2523;51.058;6.922;2023-05-16T15:17:54;16.20;18.50
5009;DHT22;2523;51.058;6.922;2023-05-16T15:20:20;16.00;16.50
5009;DHT22;2523;51.058;6.922;2023-05-16T15:22:46;15.90;16.30
5009;DHT22;2523;51.058;6.922;2023-05-16T15:25:12;15.90;14.90
5009;DHT22;2523;51.058;6.922;2023-05-16T15:27:37;15.80;14.20
5009;DHT22;2523;51.058;6.922;2023-05-16T15:30:03;15.70;13.70
5009;DHT22;2523;51.058;6.922;2023-05-16T15:32:29;15.70;13.70
5009;DHT22;2523;51.058;6.922;2023-05-16T15:34:56;15.60;13.30
5009;DHT22;2523;51.058;6.922;2023-05-16T15:37:21;15.60;13.50
5009;DHT22;2523;51.058;6.922;2023-05-16T15:39:47;15.60;13.90
5009;DHT22;2523;51.058;6.922;2023-05-16T15:42:12;15.60;13.60
5009;DHT22;2523;51.058;6.922;2023-05-16T15:44:38;15.70;15.30
5009;DHT22;2523;51.058;6.922;2023-05-16T15:47:05;15.80;16.50
5009;DHT22;2523;51.058;6.922;2023-05-16T15:49:30;15.90;16.80
5009;DHT22;2523;51.058;6.922;2023-05-16T15:51:56;15.80;16.00
5009;DHT22;2523;51.058;6.922;2023-05-16T15:54:21;15.70;27.30
5009;DHT22;2523;51.058;6.922;2023-05-16T15:56:47;15.70;14.70
5009;DHT22;2523;51.058;6.922;2023-05-16T15:59:12;15.70;14.60
5009;DHT22;2523;51.058;6.922;2023-05-16T16:01:38;15.70;15.50
5009;DHT22;2523;51.058;6.922;2023-05-16T16:04:04;15.70;15.60
5009;DHT22;2523;51.058;6.922;2023-05-16T16:06:29;15.80;16.10
5009;DHT22;2523;51.058;6.922;2023-05-16T16:08:56;15.70;16.00
5009;DHT22;2523;51.058;6.922;2023-05-16T16:11:21;15.70;16.00
5009;DHT22;2523;51.058;6.922;2023-05-16T16:13:47;15.60;17.10
5009;DHT22;2523;51.058;6.922;2023-05-16T16:16:14;15.60;17.30
5009;DHT22;2523;51.058;6.922;2023-05-16T16:18:40;15.60;18.60
5009;DHT22;2523;51.058;6.922;2023-05-16T16:21:07;15.60;20.20
5009;DHT22;2523;51.058;6.922;2023-05-16T16:23:34;15.60;19.80
5009;DHT22;2523;51.058;6.922;2023-05-16T16:26:00;15.50;23.50
5009;DHT22;2523;51.058;6.922;2023-05-16T16:28:26;15.50;21.40
5009;DHT22;2523;51.058;6.922;2023-05-16T16:30:51;15.40;25.60
5009;DHT22;2523;51.058;6.922;2023-05-16T16:33:17;15.30;22.50